sensor_id;sensor_type;location;lat;lon;timestamp;P1;durP1;ratioP1;P2;durP2;ratioP2
73693;SDS011;61997;53.974;11.670;2022-10-31T00:01:57;20.48;;;12.65;;
73693;SDS011;61997;53.974;11.670;2022-10-31T00:04:22;22.33;;;12.73;;
73693;SDS011;61997;53.974;11.670;2022-10-31T00:06:47;21.45;;;13.07;;
73693;SDS011;61997;53.974;11.670;2022-10-31T00:09:13;20.70;;;12.23;;
73693;SDS011;61997;53.974;11.670;2022-10-31T00:11:38;21.58;;;12.95;;
73693;SDS011;61997;53.974;11.670;2022-10-31T00:14:04;22.70;;;13.02;;
73693;SDS011;61997;53.974;11.670;2022-10-31T00:16:29;20.00;;;12.55;;
73693;SDS011;61997;53.974;11.670;2022-10-31T00:18:56;18.98;;;11.90;;
73693;SDS011;61997;53.974;11.670;2022-10-31T00:21:23;21.42;;;12.18;;
73693;SDS011;61997;53.974;11.670;2022-10-31T00:23:49;20.30;;;13.20;;
73693;SDS011;61997;53.974;11.670;2022-10-31T00:26:14;21.65;;;14.00;;
73693;SDS011;61997;53.974;11.670;2022-10-31T00:28:40;21.95;;;12.70;;
73693;SDS011;61997;53.974;11.670;2022-10-31T00:31:07;20.83;;;13.18;;
73693;SDS011;61997;53.974;11.670;2022-10-31T00:33:34;20.45;;;12.52;;
73693;SDS011;61997;53.974;11.670;2022-10-31T00:36:01;20.13;;;12.15;;
73693;SDS011;61997;53.974;11.670;2022-10-31T00:38:27;18.17;;;12.23;;
73693;SDS011;61997;53.974;11.670;2022-10-31T00:40:52;20.75;;;12.77;;
73693;SDS011;61997;53.974;11.670;2022-10-31T00:43:18;21.52;;;12.32;;
73693;SDS011;61997;53.974;11.670;2022-10-31T00:45:43;18.85;;;11.60;;
73693;SDS011;61997;53.974;11.670;2022-10-31T00:48:09;17.55;;;10.60;;
73693;SDS011;61997;53.974;11.670;2022-10-31T00:50:34;20.80;;;12.50;;
73693;SDS011;61997;53.974;11.670;2022-10-31T00:53:00;19.50;;;11.85;;
73693;SDS011;61997;53.974;11.670;2022-10-31T00:55:25;19.95;;;12.80;;
73693;SDS011;61997;53.974;11.670;2022-10-31T00:57:51;17.05;;;11.40;;
73693;SDS011;61997;53.974;11.670;2022-10-31T01:00:16;18.35;;;12.35;;
73693;SDS011;61997;53.974;11.670;2022-10-31T01:02:42;18.17;;;11.38;;
73693;SDS011;61997;53.974;11.670;2022-10-31T01:05:07;16.15;;;10.82;;
73693;SDS011;61997;53.974;11.670;2022-10-31T01:07:35;18.92;;;12.35;;
73693;SDS011;61997;53.974;11.670;2022-10-31T01:10:01;19.73;;;12.10;;
73693;SDS011;61997;53.974;11.670;2022-10-31T01:12:26;17.60;;;10.80;;
73693;SDS011;61997;53.974;11.670;2022-10-31T01:14:52;18.13;;;11.52;;
73693;SDS011;61997;53.974;11.670;2022-10-31T01:17:17;19.25;;;11.55;;
73693;SDS011;61997;53.974;11.670;2022-10-31T01:19:43;16.98;;;11.55;;
73693;SDS011;61997;53.974;11.670;2022-10-31T01:22:08;17.75;;;11.80;;
73693;SDS011;61997;53.974;11.670;2022-10-31T01:24:33;17.67;;;10.73;;
73693;SDS011;61997;53.974;11.670;2022-10-31T01:26:59;16.83;;;11.27;;
73693;SDS011;61997;53.974;11.670;2022-10-31T01:29:24;19.60;;;11.43;;
73693;SDS011;61997;53.974;11.670;2022-10-31T01:31:49;19.83;;;11.40;;
73693;SDS011;61997;53.974;11.670;2022-10-31T01:34:16;18.45;;;11.45;;
73693;SDS011;61997;53.974;11.670;2022-10-31T01:36:42;15.57;;;11.25;;
73693;SDS011;61997;53.974;11.670;2022-10-31T01:39:11;17.50;;;11.05;;
73693;SDS011;61997;53.974;11.670;2022-10-31T01:41:40;19.20;;;11.30;;
73693;SDS011;61997;53.974;11.670;2022-10-31T01:46:45;19.08;;;11.40;;
73693;SDS011;61997;53.974;11.670;2022-10-31T01:49:14;17.10;;;11.23;;
73693;SDS011;61997;53.974;11.670;2022-10-31T01:51:51;17.23;;;10.07;;
73693;SDS011;61997;53.974;11.670;2022-10-31T01:54:19;15.45;;;10.55;;
73693;SDS011;61997;53.974;11.670;2022-10-31T01:56:47;17.10;;;10.57;;
73693;SDS011;61997;53.974;11.670;2022-10-31T01:59:16;16.70;;;10.48;;
73693;SDS011;61997;53.974;11.670;2022-10-31T02:01:44;17.55;;;10.55;;
73693;SDS011;61997;53.974;11.670;2022-10-31T02:04:10;17.95;;;10.98;;
73693;SDS011;61997;53.974;11.670;2022-10-31T02:06:41;16.98;;;10.85;;
73693;SDS011;61997;53.974;11.670;2022-10-31T02:09:10;19.70;;;10.32;;
73693;SDS011;61997;53.974;11.670;2022-10-31T02:11:36;15.27;;;9.88;;
73693;SDS011;61997;53.974;11.670;2022-10-31T02:14:02;17.80;;;10.63;;
73693;SDS011;61997;53.974;11.670;2022-10-31T02:16:27;15.75;;;10.68;;
73693;SDS011;61997;53.974;11.670;2022-10-31T02:18:53;16.05;;;10.18;;
73693;SDS011;61997;53.974;11.670;2022-10-31T02:21:23;17.95;;;10.68;;
73693;SDS011;61997;53.974;11.670;2022-10-31T02:30:20;16.10;;;9.63;;
73693;SDS011;61997;53.974;11.670;2022-10-31T02:33:04;14.95;;;10.07;;
73693;SDS011;61997;53.974;11.670;2022-10-31T02:38:14;17.50;;;10.75;;
73693;SDS011;61997;53.974;11.670;2022-10-31T02:40:59;16.95;;;10.25;;
73693;SDS011;61997;53.974;11.670;2022-10-31T02:43:32;14.82;;;9.75;;
73693;SDS011;61997;53.974;11.670;2022-10-31T02:46:02;13.85;;;9.52;;
73693;SDS011;61997;53.974;11.670;2022-10-31T02:48:33;17.52;;;10.68;;
73693;SDS011;61997;53.974;11.670;2022-10-31T02:51:00;15.30;;;9.70;;
73693;SDS011;61997;53.974;11.670;2022-10-31T02:53:31;16.23;;;9.77;;
73693;SDS011;61997;53.974;11.670;2022-10-31T02:56:14;14.63;;;9.82;;
73693;SDS011;61997;53.974;11.670;2022-10-31T02:59:14;14.82;;;9.65;;
73693;SDS011;61997;53.974;11.670;2022-10-31T03:06:47;16.35;;;9.95;;
73693;SDS011;61997;53.974;11.670;2022-10-31T03:09:22;14.30;;;9.40;;
73693;SDS011;61997;53.974;11.670;2022-10-31T03:12:04;15.27;;;9.57;;
73693;SDS011;61997;53.974;11.670;2022-10-31T03:14:53;14.32;;;9.15;;
73693;SDS011;61997;53.974;11.670;2022-10-31T03:17:27;15.32;;;10.05;;
73693;SDS011;61997;53.974;11.670;2022-10-31T03:19:57;13.95;;;9.07;;
73693;SDS011;61997;53.974;11.670;2022-10-31T03:22:24;14.98;;;9.45;;
73693;SDS011;61997;53.974;11.670;2022-10-31T03:24:51;14.35;;;9.10;;
73693;SDS011;61997;53.974;11.670;2022-10-31T03:27:20;13.88;;;9.50;;
73693;SDS011;61997;53.974;11.670;2022-10-31T03:29:49;15.02;;;9.85;;
73693;SDS011;61997;53.974;11.670;2022-10-31T03:32:20;15.10;;;9.68;;
73693;SDS011;61997;53.974;11.670;2022-10-31T03:34:48;16.13;;;9.85;;
73693;SDS011;61997;53.974;11.670;2022-10-31T03:37:15;14.48;;;9.15;;
73693;SDS011;61997;53.974;11.670;2022-10-31T03:39:44;13.07;;;8.55;;
73693;SDS011;61997;53.974;11.670;2022-10-31T03:42:15;14.02;;;9.38;;
73693;SDS011;61997;53.974;11.670;2022-10-31T03:44:42;15.80;;;9.88;;
73693;SDS011;61997;53.974;11.670;2022-10-31T03:47:11;15.10;;;8.90;;
73693;SDS011;61997;53.974;11.670;2022-10-31T03:49:36;12.82;;;9.02;;
73693;SDS011;61997;53.974;11.670;2022-10-31T03:54:35;15.40;;;8.75;;
73693;SDS011;61997;53.974;11.670;2022-10-31T03:57:18;12.73;;;7.82;;
73693;SDS011;61997;53.974;11.670;2022-10-31T03:59:48;14.07;;;8.57;;
73693;SDS011;61997;53.974;11.670;2022-10-31T04:02:18;14.80;;;8.23;;
73693;SDS011;61997;53.974;11.670;2022-10-31T04:04:46;12.80;;;8.70;;
73693;SDS011;61997;53.974;11.670;2022-10-31T04:07:12;10.77;;;8.23;;
73693;SDS011;61997;53.974;11.670;2022-10-31T04:09:39;14.07;;;8.70;;
73693;SDS011;61997;53.974;11.670;2022-10-31T04:12:07;12.05;;;8.30;;
73693;SDS011;61997;53.974;11.670;2022-10-31T04:14:34;13.73;;;9.23;;
73693;SDS011;61997;53.974;11.670;2022-10-31T04:17:02;13.27;;;8.23;;
73693;SDS011;61997;53.974;11.670;2022-10-31T04:19:28;14.68;;;9.13;;
73693;SDS011;61997;53.974;11.670;2022-10-31T04:21:54;15.18;;;8.65;;
73693;SDS011;61997;53.974;11.670;2022-10-31T04:24:19;13.70;;;8.15;;
73693;SDS011;61997;53.974;11.670;2022-10-31T04:26:45;12.15;;;8.38;;
73693;SDS011;61997;53.974;11.670;2022-10-31T04:29:10;13.27;;;8.32;;
73693;SDS011;61997;53.974;11.670;2022-10-31T04:31:36;12.07;;;8.40;;
73693;SDS011;61997;53.974;11.670;2022-10-31T04:34:01;14.73;;;7.90;;
73693;SDS011;61997;53.974;11.670;2022-10-31T04:36:26;13.48;;;8.77;;
73693;SDS011;61997;53.974;11.670;2022-10-31T04:38:52;12.60;;;8.48;;
73693;SDS011;61997;53.974;11.670;2022-10-31T04:41:17;16.90;;;9.00;;
73693;SDS011;61997;53.974;11.670;2022-10-31T04:43:42;12.05;;;8.30;;
73693;SDS011;61997;53.974;11.670;2022-10-31T04:46:08;13.98;;;8.35;;
73693;SDS011;61997;53.974;11.670;2022-10-31T04:48:33;12.38;;;7.85;;
73693;SDS011;61997;53.974;11.670;2022-10-31T04:50:59;12.52;;;8.38;;
73693;SDS011;61997;53.974;11.670;2022-10-31T04:53:28;14.02;;;8.50;;
73693;SDS011;61997;53.974;11.670;2022-10-31T04:58:19;11.52;;;7.85;;
73693;SDS011;61997;53.974;11.670;2022-10-31T05:00:46;14.20;;;8.10;;
73693;SDS011;61997;53.974;11.670;2022-10-31T05:03:12;13.50;;;8.65;;
73693;SDS011;61997;53.974;11.670;2022-10-31T05:05:38;13.98;;;8.63;;
73693;SDS011;61997;53.974;11.670;2022-10-31T05:08:06;13.80;;;8.80;;
73693;SDS011;61997;53.974;11.670;2022-10-31T05:10:32;15.25;;;9.10;;
73693;SDS011;61997;53.974;11.670;2022-10-31T05:12:58;11.63;;;8.27;;
73693;SDS011;61997;53.974;11.670;2022-10-31T05:15:26;12.05;;;8.90;;
73693;SDS011;61997;53.974;11.670;2022-10-31T05:17:53;14.55;;;8.48;;
73693;SDS011;61997;53.974;11.670;2022-10-31T05:20:19;12.75;;;8.30;;
73693;SDS011;61997;53.974;11.670;2022-10-31T05:22:46;13.60;;;8.50;;
73693;SDS011;61997;53.974;11.670;2022-10-31T05:25:13;13.07;;;8.68;;
73693;SDS011;61997;53.974;11.670;2022-10-31T05:27:42;12.35;;;8.38;;
73693;SDS011;61997;53.974;11.670;2022-10-31T05:30:09;15.48;;;8.27;;
73693;SDS011;61997;53.974;11.670;2022-10-31T05:32:39;13.80;;;8.13;;
73693;SDS011;61997;53.974;11.670;2022-10-31T05:35:05;13.02;;;8.20;;
73693;SDS011;61997;53.974;11.670;2022-10-31T05:37:34;12.00;;;7.93;;
73693;SDS011;61997;53.974;11.670;2022-10-31T05:40:00;11.70;;;7.93;;
73693;SDS011;61997;53.974;11.670;2022-10-31T05:42:26;11.90;;;7.95;;
73693;SDS011;61997;53.974;11.670;2022-10-31T05:44:51;14.05;;;7.85;;
73693;SDS011;61997;53.974;11.670;2022-10-31T05:47:17;16.15;;;8.70;;
73693;SDS011;61997;53.974;11.670;2022-10-31T05:49:42;12.15;;;8.07;;
73693;SDS011;61997;53.974;11.670;2022-10-31T05:52:07;12.93;;;7.75;;
73693;SDS011;61997;53.974;11.670;2022-10-31T05:54:33;13.15;;;8.20;;
73693;SDS011;61997;53.974;11.670;2022-10-31T05:56:58;12.60;;;8.00;;
73693;SDS011;61997;53.974;11.670;2022-10-31T05:59:23;12.15;;;8.00;;
73693;SDS011;61997;53.974;11.670;2022-10-31T06:01:49;13.68;;;7.82;;
73693;SDS011;61997;53.974;11.670;2022-10-31T06:04:14;13.45;;;7.80;;
73693;SDS011;61997;53.974;11.670;2022-10-31T06:06:40;12.88;;;7.82;;
73693;SDS011;61997;53.974;11.670;2022-10-31T06:09:05;13.60;;;8.48;;
73693;SDS011;61997;53.974;11.670;2022-10-31T06:11:30;12.90;;;7.88;;
73693;SDS011;61997;53.974;11.670;2022-10-31T06:13:56;11.68;;;7.60;;
73693;SDS011;61997;53.974;11.670;2022-10-31T06:16:21;11.30;;;7.82;;
73693;SDS011;61997;53.974;11.670;2022-10-31T06:18:47;12.00;;;8.05;;
73693;SDS011;61997;53.974;11.670;2022-10-31T06:21:12;11.15;;;8.18;;
73693;SDS011;61997;53.974;11.670;2022-10-31T06:23:37;11.82;;;7.82;;
73693;SDS011;61997;53.974;11.670;2022-10-31T06:26:03;10.10;;;8.15;;
73693;SDS011;61997;53.974;11.670;2022-10-31T06:28:28;11.35;;;8.02;;
73693;SDS011;61997;53.974;11.670;2022-10-31T06:30:54;12.75;;;7.75;;
73693;SDS011;61997;53.974;11.670;2022-10-31T06:33:19;12.18;;;7.55;;
73693;SDS011;61997;53.974;11.670;2022-10-31T06:35:48;13.32;;;8.10;;
73693;SDS011;61997;53.974;11.670;2022-10-31T06:38:13;10.48;;;7.80;;
73693;SDS011;61997;53.974;11.670;2022-10-31T06:40:39;13.85;;;8.43;;
73693;SDS011;61997;53.974;11.670;2022-10-31T06:43:05;13.50;;;8.27;;
73693;SDS011;61997;53.974;11.670;2022-10-31T06:45:30;9.18;;;7.13;;
73693;SDS011;61997;53.974;11.670;2022-10-31T06:47:56;13.30;;;8.07;;
73693;SDS011;61997;53.974;11.670;2022-10-31T06:50:22;10.57;;;6.93;;
73693;SDS011;61997;53.974;11.670;2022-10-31T06:52:54;11.00;;;7.55;;
73693;SDS011;61997;53.974;11.670;2022-10-31T06:57:52;11.95;;;7.28;;
73693;SDS011;61997;53.974;11.670;2022-10-31T07:00:20;11.60;;;7.85;;
73693;SDS011;61997;53.974;11.670;2022-10-31T07:02:55;11.93;;;7.15;;
73693;SDS011;61997;53.974;11.670;2022-10-31T07:05:25;10.95;;;7.63;;
73693;SDS011;61997;53.974;11.670;2022-10-31T07:07:51;10.98;;;7.57;;
73693;SDS011;61997;53.974;11.670;2022-10-31T07:10:42;12.95;;;8.20;;
73693;SDS011;61997;53.974;11.670;2022-10-31T07:13:10;12.77;;;7.93;;
73693;SDS011;61997;53.974;11.670;2022-10-31T07:18:03;13.00;;;7.20;;
73693;SDS011;61997;53.974;11.670;2022-10-31T07:20:33;13.48;;;7.90;;
73693;SDS011;61997;53.974;11.670;2022-10-31T07:22:59;11.85;;;7.65;;
73693;SDS011;61997;53.974;11.670;2022-10-31T07:25:25;14.00;;;8.02;;
73693;SDS011;61997;53.974;11.670;2022-10-31T07:27:51;9.90;;;6.25;;
73693;SDS011;61997;53.974;11.670;2022-10-31T07:30:18;12.02;;;7.72;;
73693;SDS011;61997;53.974;11.670;2022-10-31T07:32:45;12.27;;;8.10;;
73693;SDS011;61997;53.974;11.670;2022-10-31T07:35:14;11.57;;;7.45;;
73693;SDS011;61997;53.974;11.670;2022-10-31T07:37:41;12.20;;;7.55;;
73693;SDS011;61997;53.974;11.670;2022-10-31T07:40:07;11.88;;;7.35;;
73693;SDS011;61997;53.974;11.670;2022-10-31T07:42:36;10.05;;;6.85;;
73693;SDS011;61997;53.974;11.670;2022-10-31T07:45:03;11.88;;;7.22;;
73693;SDS011;61997;53.974;11.670;2022-10-31T07:47:29;10.57;;;7.38;;
73693;SDS011;61997;53.974;11.670;2022-10-31T07:49:55;10.15;;;7.38;;
73693;SDS011;61997;53.974;11.670;2022-10-31T07:52:20;10.20;;;6.75;;
73693;SDS011;61997;53.974;11.670;2022-10-31T07:54:45;9.57;;;6.82;;
73693;SDS011;61997;53.974;11.670;2022-10-31T07:57:11;10.10;;;6.60;;
73693;SDS011;61997;53.974;11.670;2022-10-31T07:59:36;11.57;;;6.82;;
73693;SDS011;61997;53.974;11.670;2022-10-31T08:02:01;10.40;;;6.97;;
73693;SDS011;61997;53.974;11.670;2022-10-31T08:04:27;10.65;;;7.68;;
73693;SDS011;61997;53.974;11.670;2022-10-31T08:06:52;8.82;;;6.60;;
73693;SDS011;61997;53.974;11.670;2022-10-31T08:09:17;10.35;;;6.80;;
73693;SDS011;61997;53.974;11.670;2022-10-31T08:11:43;10.48;;;6.45;;
73693;SDS011;61997;53.974;11.670;2022-10-31T08:14:08;13.18;;;6.70;;
73693;SDS011;61997;53.974;11.670;2022-10-31T08:16:34;11.40;;;6.80;;
73693;SDS011;61997;53.974;11.670;2022-10-31T08:18:59;10.63;;;7.07;;
73693;SDS011;61997;53.974;11.670;2022-10-31T08:21:25;10.77;;;6.82;;
73693;SDS011;61997;53.974;11.670;2022-10-31T08:23:50;9.68;;;6.85;;
73693;SDS011;61997;53.974;11.670;2022-10-31T08:26:15;11.30;;;6.88;;
73693;SDS011;61997;53.974;11.670;2022-10-31T08:28:41;9.60;;;6.40;;
73693;SDS011;61997;53.974;11.670;2022-10-31T08:31:06;9.73;;;6.38;;
73693;SDS011;61997;53.974;11.670;2022-10-31T08:33:32;12.23;;;7.25;;
73693;SDS011;61997;53.974;11.670;2022-10-31T08:35:57;8.85;;;6.45;;
73693;SDS011;61997;53.974;11.670;2022-10-31T08:38:23;9.13;;;6.80;;
73693;SDS011;61997;53.974;11.670;2022-10-31T08:40:48;11.02;;;6.63;;
73693;SDS011;61997;53.974;11.670;2022-10-31T08:43:15;11.13;;;6.78;;
73693;SDS011;61997;53.974;11.670;2022-10-31T08:45:42;9.85;;;7.38;;
73693;SDS011;61997;53.974;11.670;2022-10-31T08:48:12;9.18;;;6.55;;
73693;SDS011;61997;53.974;11.670;2022-10-31T08:50:38;10.60;;;6.72;;
73693;SDS011;61997;53.974;11.670;2022-10-31T08:53:05;9.90;;;5.93;;
73693;SDS011;61997;53.974;11.670;2022-10-31T08:55:34;8.07;;;6.28;;
73693;SDS011;61997;53.974;11.670;2022-10-31T08:58:00;9.70;;;6.38;;
73693;SDS011;61997;53.974;11.670;2022-10-31T09:00:26;10.57;;;6.80;;
73693;SDS011;61997;53.974;11.670;2022-10-31T09:02:55;9.55;;;6.32;;
73693;SDS011;61997;53.974;11.670;2022-10-31T09:05:24;10.00;;;6.72;;
73693;SDS011;61997;53.974;11.670;2022-10-31T09:07:50;9.88;;;6.68;;
73693;SDS011;61997;53.974;11.670;2022-10-31T09:10:15;10.60;;;6.63;;
73693;SDS011;61997;53.974;11.670;2022-10-31T09:12:41;12.60;;;6.88;;
73693;SDS011;61997;53.974;11.670;2022-10-31T09:15:07;11.18;;;7.05;;
73693;SDS011;61997;53.974;11.670;2022-10-31T09:17:33;10.98;;;6.90;;
73693;SDS011;61997;53.974;11.670;2022-10-31T09:19:58;9.52;;;6.22;;
73693;SDS011;61997;53.974;11.670;2022-10-31T09:22:23;10.25;;;6.78;;
73693;SDS011;61997;53.974;11.670;2022-10-31T09:24:49;10.05;;;6.25;;
73693;SDS011;61997;53.974;11.670;2022-10-31T09:27:14;11.15;;;6.70;;
73693;SDS011;61997;53.974;11.670;2022-10-31T09:29:39;9.98;;;6.55;;
73693;SDS011;61997;53.974;11.670;2022-10-31T09:32:05;8.07;;;6.40;;
73693;SDS011;61997;53.974;11.670;2022-10-31T09:34:30;11.02;;;6.68;;
73693;SDS011;61997;53.974;11.670;2022-10-31T09:36:56;12.23;;;7.18;;
73693;SDS011;61997;53.974;11.670;2022-10-31T09:39:21;12.80;;;7.43;;
73693;SDS011;61997;53.974;11.670;2022-10-31T09:47:19;12.10;;;7.35;;
73693;SDS011;61997;53.974;11.670;2022-10-31T09:52:33;12.57;;;8.05;;
73693;SDS011;61997;53.974;11.670;2022-10-31T09:55:13;13.43;;;8.63;;
73693;SDS011;61997;53.974;11.670;2022-10-31T09:57:43;13.20;;;9.18;;
73693;SDS011;61997;53.974;11.670;2022-10-31T10:00:14;14.07;;;9.07;;
73693;SDS011;61997;53.974;11.670;2022-10-31T10:05:13;16.08;;;10.88;;
73693;SDS011;61997;53.974;11.670;2022-10-31T10:32:43;17.58;;;11.27;;
73693;SDS011;61997;53.974;11.670;2022-10-31T10:35:33;22.17;;;12.43;;
73693;SDS011;61997;53.974;11.670;2022-10-31T10:41:01;23.20;;;13.25;;
73693;SDS011;61997;53.974;11.670;2022-10-31T10:43:42;25.33;;;15.05;;
73693;SDS011;61997;53.974;11.670;2022-10-31T10:51:45;26.42;;;14.85;;
73693;SDS011;61997;53.974;11.670;2022-10-31T10:59:58;24.60;;;16.75;;
73693;SDS011;61997;53.974;11.670;2022-10-31T11:02:26;27.63;;;16.40;;
73693;SDS011;61997;53.974;11.670;2022-10-31T11:04:56;26.83;;;16.60;;
73693;SDS011;61997;53.974;11.670;2022-10-31T11:07:23;27.33;;;16.48;;
73693;SDS011;61997;53.974;11.670;2022-10-31T11:09:48;31.55;;;17.75;;
73693;SDS011;61997;53.974;11.670;2022-10-31T11:12:19;30.17;;;17.50;;
73693;SDS011;61997;53.974;11.670;2022-10-31T11:14:50;29.20;;;18.13;;
73693;SDS011;61997;53.974;11.670;2022-10-31T11:17:33;30.38;;;18.30;;
73693;SDS011;61997;53.974;11.670;2022-10-31T11:22:36;29.42;;;17.80;;
73693;SDS011;61997;53.974;11.670;2022-10-31T11:25:14;29.15;;;17.98;;
73693;SDS011;61997;53.974;11.670;2022-10-31T11:27:45;29.55;;;18.05;;
73693;SDS011;61997;53.974;11.670;2022-10-31T11:30:14;33.85;;;19.75;;
73693;SDS011;61997;53.974;11.670;2022-10-31T11:32:42;32.50;;;19.30;;
73693;SDS011;61997;53.974;11.670;2022-10-31T11:35:14;30.83;;;19.23;;
73693;SDS011;61997;53.974;11.670;2022-10-31T11:37:43;26.25;;;17.90;;
73693;SDS011;61997;53.974;11.670;2022-10-31T11:40:22;28.70;;;18.92;;
73693;SDS011;61997;53.974;11.670;2022-10-31T11:42:49;29.23;;;18.98;;
73693;SDS011;61997;53.974;11.670;2022-10-31T11:45:17;26.40;;;18.15;;
73693;SDS011;61997;53.974;11.670;2022-10-31T11:47:52;31.40;;;19.75;;
73693;SDS011;61997;53.974;11.670;2022-10-31T11:50:24;32.80;;;19.80;;
73693;SDS011;61997;53.974;11.670;2022-10-31T11:55:36;27.67;;;18.20;;
73693;SDS011;61997;53.974;11.670;2022-10-31T11:58:03;28.52;;;19.38;;
73693;SDS011;61997;53.974;11.670;2022-10-31T12:00:30;33.55;;;18.65;;
73693;SDS011;61997;53.974;11.670;2022-10-31T12:05:39;30.15;;;17.95;;
73693;SDS011;61997;53.974;11.670;2022-10-31T12:08:06;31.65;;;19.10;;
73693;SDS011;61997;53.974;11.670;2022-10-31T12:10:40;28.55;;;19.08;;
73693;SDS011;61997;53.974;11.670;2022-10-31T12:18:56;27.48;;;17.40;;
73693;SDS011;61997;53.974;11.670;2022-10-31T12:35:33;29.50;;;18.35;;
73693;SDS011;61997;53.974;11.670;2022-10-31T12:41:09;30.65;;;17.75;;
73693;SDS011;61997;53.974;11.670;2022-10-31T12:44:06;26.13;;;16.10;;
73693;SDS011;61997;53.974;11.670;2022-10-31T13:00:18;23.05;;;14.95;;
73693;SDS011;61997;53.974;11.670;2022-10-31T13:02:51;25.55;;;15.98;;
73693;SDS011;61997;53.974;11.670;2022-10-31T13:05:30;25.83;;;15.45;;
73693;SDS011;61997;53.974;11.670;2022-10-31T13:08:10;25.52;;;15.07;;
73693;SDS011;61997;53.974;11.670;2022-10-31T13:11:11;24.67;;;15.52;;
73693;SDS011;61997;53.974;11.670;2022-10-31T13:14:45;24.10;;;15.25;;
73693;SDS011;61997;53.974;11.670;2022-10-31T13:16:56;23.20;;;15.57;;
73693;SDS011;61997;53.974;11.670;2022-10-31T13:19:25;22.88;;;14.48;;
73693;SDS011;61997;53.974;11.670;2022-10-31T13:29:56;22.23;;;13.80;;
73693;SDS011;61997;53.974;11.670;2022-10-31T13:32:27;23.63;;;14.27;;
73693;SDS011;61997;53.974;11.670;2022-10-31T13:35:01;23.02;;;13.60;;
73693;SDS011;61997;53.974;11.670;2022-10-31T13:37:32;20.65;;;13.70;;
73693;SDS011;61997;53.974;11.670;2022-10-31T13:40:18;21.65;;;13.93;;
73693;SDS011;61997;53.974;11.670;2022-10-31T13:42:54;21.02;;;13.68;;
73693;SDS011;61997;53.974;11.670;2022-10-31T13:45:32;21.60;;;13.40;;
73693;SDS011;61997;53.974;11.670;2022-10-31T13:47:59;20.40;;;12.35;;
73693;SDS011;61997;53.974;11.670;2022-10-31T13:50:30;17.65;;;12.68;;
73693;SDS011;61997;53.974;11.670;2022-10-31T13:53:08;20.02;;;12.93;;
73693;SDS011;61997;53.974;11.670;2022-10-31T14:03:36;18.63;;;12.15;;
73693;SDS011;61997;53.974;11.670;2022-10-31T14:06:02;21.58;;;12.75;;
73693;SDS011;61997;53.974;11.670;2022-10-31T14:08:30;17.65;;;11.88;;
73693;SDS011;61997;53.974;11.670;2022-10-31T14:10:58;17.25;;;11.73;;
73693;SDS011;61997;53.974;11.670;2022-10-31T14:13:43;17.08;;;11.52;;
73693;SDS011;61997;53.974;11.670;2022-10-31T14:16:20;17.73;;;11.68;;
73693;SDS011;61997;53.974;11.670;2022-10-31T14:18:50;17.55;;;11.07;;
73693;SDS011;61997;53.974;11.670;2022-10-31T14:21:27;17.13;;;11.57;;
73693;SDS011;61997;53.974;11.670;2022-10-31T14:23:54;16.77;;;10.98;;
73693;SDS011;61997;53.974;11.670;2022-10-31T14:28:54;18.75;;;11.35;;
73693;SDS011;61997;53.974;11.670;2022-10-31T14:37:13;18.20;;;10.18;;
73693;SDS011;61997;53.974;11.670;2022-10-31T14:42:36;15.75;;;10.25;;
73693;SDS011;61997;53.974;11.670;2022-10-31T14:53:20;16.20;;;9.18;;
73693;SDS011;61997;53.974;11.670;2022-10-31T14:55:49;16.20;;;10.00;;
73693;SDS011;61997;53.974;11.670;2022-10-31T14:58:17;14.25;;;9.35;;
73693;SDS011;61997;53.974;11.670;2022-10-31T15:00:46;16.88;;;9.60;;
73693;SDS011;61997;53.974;11.670;2022-10-31T15:03:15;15.88;;;10.05;;
73693;SDS011;61997;53.974;11.670;2022-10-31T15:05:48;13.80;;;9.32;;
73693;SDS011;61997;53.974;11.670;2022-10-31T15:08:26;13.57;;;9.18;;
73693;SDS011;61997;53.974;11.670;2022-10-31T15:10:54;14.13;;;8.35;;
73693;SDS011;61997;53.974;11.670;2022-10-31T15:13:20;13.90;;;9.50;;
73693;SDS011;61997;53.974;11.670;2022-10-31T15:15:47;13.13;;;7.97;;
73693;SDS011;61997;53.974;11.670;2022-10-31T15:18:14;11.45;;;8.15;;
73693;SDS011;61997;53.974;11.670;2022-10-31T15:20:43;15.40;;;8.73;;
73693;SDS011;61997;53.974;11.670;2022-10-31T15:23:10;12.75;;;8.15;;
73693;SDS011;61997;53.974;11.670;2022-10-31T15:25:39;12.15;;;8.20;;
73693;SDS011;61997;53.974;11.670;2022-10-31T15:28:12;12.85;;;8.07;;
73693;SDS011;61997;53.974;11.670;2022-10-31T15:30:39;12.23;;;7.43;;
73693;SDS011;61997;53.974;11.670;2022-10-31T15:33:17;12.63;;;8.27;;
73693;SDS011;61997;53.974;11.670;2022-10-31T15:35:53;13.80;;;7.82;;
73693;SDS011;61997;53.974;11.670;2022-10-31T15:38:20;12.55;;;8.15;;
73693;SDS011;61997;53.974;11.670;2022-10-31T15:43:24;11.93;;;7.72;;
73693;SDS011;61997;53.974;11.670;2022-10-31T15:45:50;12.07;;;7.72;;
73693;SDS011;61997;53.974;11.670;2022-10-31T15:48:16;10.55;;;6.68;;
73693;SDS011;61997;53.974;11.670;2022-10-31T15:50:50;11.05;;;6.82;;
73693;SDS011;61997;53.974;11.670;2022-10-31T15:53:18;11.02;;;7.13;;
73693;SDS011;61997;53.974;11.670;2022-10-31T15:58:21;11.50;;;6.90;;
73693;SDS011;61997;53.974;11.670;2022-10-31T16:01:33;11.00;;;6.82;;
73693;SDS011;61997;53.974;11.670;2022-10-31T16:06:33;10.02;;;6.40;;
73693;SDS011;61997;53.974;11.670;2022-10-31T16:08:59;10.90;;;6.80;;
73693;SDS011;61997;53.974;11.670;2022-10-31T16:11:37;8.23;;;6.38;;
73693;SDS011;61997;53.974;11.670;2022-10-31T16:14:22;12.20;;;6.75;;
73693;SDS011;61997;53.974;11.670;2022-10-31T16:16:50;9.30;;;6.70;;
73693;SDS011;61997;53.974;11.670;2022-10-31T16:21:47;10.73;;;6.72;;
73693;SDS011;61997;53.974;11.670;2022-10-31T16:24:27;9.60;;;5.82;;
73693;SDS011;61997;53.974;11.670;2022-10-31T16:26:57;10.73;;;6.00;;
73693;SDS011;61997;53.974;11.670;2022-10-31T16:29:38;9.50;;;6.20;;
73693;SDS011;61997;53.974;11.670;2022-10-31T16:34:58;10.77;;;6.55;;
73693;SDS011;61997;53.974;11.670;2022-10-31T16:37:25;10.27;;;5.93;;
73693;SDS011;61997;53.974;11.670;2022-10-31T16:39:50;9.07;;;5.82;;
73693;SDS011;61997;53.974;11.670;2022-10-31T16:42:15;9.00;;;5.80;;
73693;SDS011;61997;53.974;11.670;2022-10-31T16:44:41;7.97;;;5.22;;
73693;SDS011;61997;53.974;11.670;2022-10-31T16:47:11;7.68;;;5.50;;
73693;SDS011;61997;53.974;11.670;2022-10-31T16:49:38;8.68;;;5.40;;
73693;SDS011;61997;53.974;11.670;2022-10-31T16:52:03;10.32;;;6.18;;
73693;SDS011;61997;53.974;11.670;2022-10-31T16:54:29;8.68;;;5.32;;
73693;SDS011;61997;53.974;11.670;2022-10-31T16:56:54;9.52;;;5.70;;
73693;SDS011;61997;53.974;11.670;2022-10-31T16:59:20;8.60;;;5.50;;
73693;SDS011;61997;53.974;11.670;2022-10-31T17:01:47;8.60;;;5.43;;
73693;SDS011;61997;53.974;11.670;2022-10-31T17:04:14;9.73;;;5.65;;
73693;SDS011;61997;53.974;11.670;2022-10-31T17:06:40;9.07;;;5.63;;
73693;SDS011;61997;53.974;11.670;2022-10-31T17:09:06;9.57;;;5.82;;
73693;SDS011;61997;53.974;11.670;2022-10-31T17:11:32;7.70;;;5.30;;
73693;SDS011;61997;53.974;11.670;2022-10-31T17:13:58;11.07;;;6.00;;
73693;SDS011;61997;53.974;11.670;2022-10-31T17:16:24;9.82;;;5.50;;
73693;SDS011;61997;53.974;11.670;2022-10-31T17:18:49;8.45;;;5.07;;